createdAt,value
2022-11-12T00:00:55.757Z,1.00
2022-11-12T00:03:22.559Z,0.93
2022-11-12T00:05:50.832Z,0.47
2022-11-12T00:08:18.540Z,0.50
2022-11-12T00:10:45.857Z,0.40
2022-11-12T00:13:13.294Z,0.47
2022-11-12T00:15:40.154Z,0.80
2022-11-12T00:18:07.813Z,0.47
2022-11-12T00:20:34.967Z,0.60
2022-11-12T00:23:01.630Z,0.43
2022-11-12T00:25:28.776Z,0.43
2022-11-12T00:28:01.536Z,0.80
2022-11-12T00:30:28.215Z,0.60
2022-11-12T00:32:54.900Z,0.40
2022-11-12T00:35:21.568Z,0.40
2022-11-12T00:37:48.300Z,0.30
2022-11-12T00:40:15.288Z,0.50
2022-11-12T00:42:42.075Z,0.77
2022-11-12T00:45:09.863Z,0.30
2022-11-12T00:47:36.487Z,0.40
2022-11-12T00:50:03.197Z,0.30
2022-11-12T00:52:29.710Z,0.83
2022-11-12T00:54:56.307Z,0.60
2022-11-12T00:57:22.965Z,0.53
2022-11-12T00:59:49.589Z,0.43
2022-11-12T01:02:16.223Z,0.50
2022-11-12T01:04:42.782Z,0.50
2022-11-12T01:07:09.413Z,0.60
2022-11-12T01:09:36.028Z,0.30
2022-11-12T01:12:02.792Z,0.43
2022-11-12T01:14:29.424Z,0.77
2022-11-12T01:16:56.075Z,0.33
2022-11-12T01:19:22.693Z,0.40
2022-11-12T01:21:49.357Z,0.40
2022-11-12T01:24:16.161Z,0.80
2022-11-12T01:26:42.812Z,0.60
2022-11-12T01:29:09.408Z,0.30
2022-11-12T01:31:38.354Z,0.37
2022-11-12T01:34:07.717Z,0.40
2022-11-12T01:36:37.838Z,0.40
2022-11-12T01:39:06.242Z,0.40
2022-11-12T01:41:35.200Z,0.60
2022-11-12T01:44:16.964Z,0.73
2022-11-12T01:47:21.123Z,0.57
2022-11-12T01:49:53.236Z,0.60
2022-11-12T01:52:27.507Z,0.40
2022-11-12T01:54:57.491Z,0.70
2022-11-12T01:57:34.652Z,0.63
2022-11-12T02:00:07.357Z,0.50
2022-11-12T02:02:36.327Z,0.50
2022-11-12T02:05:06.506Z,0.67
2022-11-12T02:07:34.679Z,0.23
2022-11-12T02:10:02.621Z,0.53
2022-11-12T02:12:48.858Z,0.40
2022-11-12T02:15:15.621Z,0.60
2022-11-12T02:17:42.986Z,0.23
2022-11-12T02:20:11.537Z,0.90
2022-11-12T02:22:38.165Z,0.40
2022-11-12T02:25:05.403Z,0.40
2022-11-12T02:27:32.374Z,0.70
2022-11-12T02:29:58.965Z,0.50
2022-11-12T02:32:25.617Z,0.30
2022-11-12T02:34:52.325Z,0.53
2022-11-12T02:37:18.897Z,0.30
2022-11-12T02:39:45.570Z,0.40
2022-11-12T02:43:24.209Z,0.40
2022-11-12T02:45:50.737Z,0.40
2022-11-12T02:48:19.291Z,0.40
2022-11-12T02:50:47.522Z,0.40
2022-11-12T02:53:14.144Z,0.70
2022-11-12T02:55:40.596Z,0.60
2022-11-12T02:58:07.058Z,0.70
2022-11-12T03:00:33.476Z,0.67
2022-11-12T03:03:00.014Z,0.47
2022-11-12T03:05:31.140Z,0.77
2022-11-12T03:08:03.594Z,0.47
2022-11-12T03:10:31.135Z,0.70
2022-11-12T03:12:59.562Z,0.80
2022-11-12T03:15:27.363Z,0.70
2022-11-12T03:17:54.003Z,0.60
2022-11-12T03:20:20.947Z,0.47
2022-11-12T03:22:59.578Z,0.70
2022-11-12T03:25:27.164Z,1.47
2022-11-12T03:28:03.099Z,0.87
2022-11-12T03:30:32.525Z,0.53
2022-11-12T03:32:59.027Z,0.40
2022-11-12T03:35:26.789Z,0.40
2022-11-12T03:37:53.636Z,0.40
2022-11-12T03:40:20.374Z,0.63
2022-11-12T03:42:48.634Z,0.77
2022-11-12T03:45:16.104Z,0.50
2022-11-12T03:47:47.915Z,0.43
2022-11-12T03:50:16.324Z,0.97
2022-11-12T03:52:51.504Z,0.40
2022-11-12T03:55:20.180Z,0.60
2022-11-12T03:57:48.964Z,0.70
2022-11-12T04:00:16.329Z,0.97
2022-11-12T04:02:42.839Z,0.63
2022-11-12T04:05:47.689Z,0.50
2022-11-12T04:08:38.272Z,0.40
2022-11-12T04:11:13.773Z,0.50
2022-11-12T04:13:42.244Z,0.50
2022-11-12T04:16:31.387Z,0.63
2022-11-12T04:19:19.021Z,1.07
2022-11-12T04:21:51.198Z,0.87
2022-11-12T04:24:38.277Z,0.63
2022-11-12T04:27:05.737Z,0.53
2022-11-12T04:29:50.944Z,0.80
2022-11-12T04:32:17.790Z,0.60
2022-11-12T04:34:44.377Z,0.70
2022-11-12T04:37:10.991Z,0.40
2022-11-12T04:39:37.471Z,0.67
2022-11-12T04:42:23.073Z,0.43
2022-11-12T04:45:02.630Z,1.23
2022-11-12T04:47:40.230Z,0.30
2022-11-12T04:50:15.918Z,0.70
2022-11-12T04:52:42.496Z,0.80
2022-11-12T04:55:09.625Z,0.47
2022-11-12T04:57:37.082Z,0.80
2022-11-12T05:00:05.398Z,0.87
2022-11-12T05:02:31.779Z,1.03
2022-11-12T05:04:58.223Z,0.53
2022-11-12T05:07:24.687Z,0.60
2022-11-12T05:09:51.163Z,0.53
2022-11-12T05:12:17.555Z,0.40
2022-11-12T05:14:44.053Z,1.27
2022-11-12T05:17:10.446Z,0.50
2022-11-12T05:19:36.989Z,0.33
2022-11-12T05:22:06.299Z,0.63
2022-11-12T05:24:42.512Z,0.73
2022-11-12T05:27:12.608Z,0.50
2022-11-12T05:29:39.141Z,0.53
2022-11-12T05:32:07.361Z,0.73
2022-11-12T05:34:34.245Z,0.77
2022-11-12T05:37:03.000Z,0.80
2022-11-12T05:39:29.496Z,0.50
2022-11-12T05:42:12.428Z,0.50
2022-11-12T05:44:39.758Z,0.33
2022-11-12T05:47:06.373Z,0.33
2022-11-12T05:49:32.876Z,0.60
2022-11-12T05:51:59.416Z,0.63
2022-11-12T05:54:25.980Z,0.60
2022-11-12T05:56:56.018Z,0.43
2022-11-12T05:59:22.656Z,0.60
2022-11-12T06:01:49.348Z,0.33
2022-11-12T06:04:16.865Z,0.70
2022-11-12T06:06:44.713Z,0.40
2022-11-12T06:09:11.371Z,0.90
2022-11-12T06:11:39.153Z,0.50
2022-11-12T06:14:06.014Z,0.63
2022-11-12T06:16:33.207Z,1.00
2022-11-12T06:19:00.111Z,0.70
2022-11-12T06:21:27.964Z,0.50
2022-11-12T06:23:57.851Z,0.50
2022-11-12T06:26:27.108Z,0.40
2022-11-12T06:28:54.203Z,0.67
2022-11-12T06:31:21.653Z,0.30
2022-11-12T06:33:48.973Z,0.60
2022-11-12T06:36:17.794Z,0.50
2022-11-12T06:38:45.381Z,0.47
2022-11-12T06:41:13.499Z,0.80
2022-11-12T06:43:41.036Z,0.57
2022-11-12T06:46:11.593Z,0.47
2022-11-12T06:48:38.358Z,0.40
2022-11-12T06:51:21.441Z,0.53
2022-11-12T06:53:48.663Z,0.50
2022-11-12T06:56:16.285Z,0.80
2022-11-12T06:58:43.147Z,0.40
2022-11-12T07:01:13.350Z,0.70
2022-11-12T07:03:44.391Z,0.73
2022-11-12T07:06:19.401Z,0.40
2022-11-12T07:08:50.485Z,0.43
2022-11-12T07:11:18.558Z,0.73
2022-11-12T07:13:46.118Z,0.57
2022-11-12T07:16:14.183Z,0.47
2022-11-12T07:18:40.740Z,0.47
2022-11-12T07:21:12.317Z,8.00
2022-11-12T07:23:39.262Z,2.90
2022-11-12T07:26:08.883Z,1.60
2022-11-12T07:28:35.535Z,1.30
2022-11-12T07:31:07.535Z,0.60
2022-11-12T07:33:34.739Z,1.03
2022-11-12T07:36:07.524Z,0.57
2022-11-12T07:38:36.278Z,0.87
2022-11-12T07:41:03.942Z,0.87
2022-11-12T07:43:32.231Z,0.53
2022-11-12T07:46:10.281Z,0.30
2022-11-12T07:48:37.246Z,0.73
2022-11-12T07:51:06.321Z,1.00
2022-11-12T07:53:33.215Z,0.70
2022-11-12T07:56:01.600Z,0.60
2022-11-12T07:58:31.774Z,0.73
2022-11-12T08:00:58.802Z,0.60
2022-11-12T08:03:26.035Z,0.60
2022-11-12T08:05:52.763Z,0.80
2022-11-12T08:08:19.322Z,0.87
2022-11-12T08:10:45.899Z,0.90
2022-11-12T08:13:12.497Z,0.70
2022-11-12T08:15:39.095Z,0.70
2022-11-12T08:18:05.785Z,0.70
2022-11-12T08:20:32.383Z,0.87
2022-11-12T08:23:02.174Z,0.90
2022-11-12T08:25:28.870Z,0.70
2022-11-12T08:27:59.994Z,0.87
2022-11-12T08:30:27.587Z,0.53
2022-11-12T08:33:05.269Z,0.40
2022-11-12T08:35:33.179Z,0.80
2022-11-12T08:38:04.944Z,0.70
2022-11-12T08:40:32.869Z,0.40
2022-11-12T08:42:59.568Z,0.57
2022-11-12T08:45:27.168Z,0.80
2022-11-12T08:47:58.518Z,0.50
2022-11-12T08:50:25.198Z,1.27
2022-11-12T08:52:51.863Z,1.80
2022-11-12T08:55:18.631Z,1.27
2022-11-12T08:57:45.362Z,0.70
2022-11-12T09:00:13.254Z,0.60
2022-11-12T09:02:39.989Z,0.30
2022-11-12T09:05:07.181Z,0.90
2022-11-12T09:07:49.303Z,0.70
2022-11-12T09:10:16.812Z,0.73
2022-11-12T09:12:43.420Z,0.90
2022-11-12T09:15:36.178Z,0.60
2022-11-12T09:17:58.440Z,0.67
2022-11-12T09:20:26.447Z,0.80
2022-11-12T09:22:53.013Z,0.50
2022-11-12T09:25:19.676Z,0.40
2022-11-12T09:27:48.575Z,0.47
2022-11-12T09:30:15.702Z,0.70
2022-11-12T09:32:42.393Z,0.43
2022-11-12T09:35:08.992Z,0.90
2022-11-12T09:37:38.370Z,0.63
2022-11-12T09:40:16.192Z,0.73
2022-11-12T09:42:47.167Z,1.10
2022-11-12T09:45:50.330Z,1.30
2022-11-12T09:48:32.664Z,1.50
2022-11-12T09:51:18.633Z,3.07
2022-11-12T09:53:54.614Z,2.93
2022-11-12T09:56:22.099Z,3.00
2022-11-12T09:58:49.810Z,2.53
2022-11-12T10:01:22.550Z,2.27
2022-11-12T10:04:03.293Z,2.23
2022-11-12T10:06:46.598Z,1.10
2022-11-12T10:09:29.172Z,2.10
2022-11-12T10:12:14.309Z,1.97
2022-11-12T10:14:59.415Z,2.07
2022-11-12T10:17:58.531Z,1.97
2022-11-12T10:20:38.456Z,2.17
2022-11-12T10:23:16.954Z,2.47
2022-11-12T10:25:46.446Z,2.63
2022-11-12T10:28:26.118Z,1.90
2022-11-12T10:30:58.783Z,2.30
2022-11-12T10:33:30.527Z,2.10
2022-11-12T10:36:12.603Z,1.90
2022-11-12T10:38:43.765Z,1.73
2022-11-12T10:41:26.207Z,1.63
2022-11-12T10:43:57.805Z,1.70
2022-11-12T10:46:33.555Z,1.70
2022-11-12T10:49:03.702Z,1.70
2022-11-12T10:51:33.520Z,1.90
2022-11-12T10:54:19.184Z,1.67
2022-11-12T10:56:45.716Z,2.00
2022-11-12T10:59:17.239Z,1.57
2022-11-12T11:01:46.105Z,1.67
2022-11-12T11:04:28.842Z,1.87
2022-11-12T11:07:07.098Z,1.73
2022-11-12T11:09:34.711Z,2.03
2022-11-12T11:12:01.644Z,2.03
2022-11-12T11:14:34.347Z,2.00
2022-11-12T11:17:08.500Z,2.20
2022-11-12T11:19:41.056Z,1.60
2022-11-12T11:22:35.391Z,1.73
2022-11-12T11:25:17.956Z,1.73
2022-11-12T11:27:50.630Z,2.67
2022-11-12T11:30:19.672Z,2.00
2022-11-12T11:32:46.157Z,1.77
2022-11-12T11:35:25.168Z,2.30
2022-11-12T11:38:20.336Z,2.17
2022-11-12T11:41:14.641Z,1.73
2022-11-12T11:43:58.969Z,2.57
2022-11-12T11:46:53.064Z,1.60
2022-11-12T11:49:31.947Z,2.53
2022-11-12T11:52:23.570Z,2.30
2022-11-12T11:55:17.857Z,2.10
2022-11-12T11:58:11.923Z,2.03
2022-11-12T12:00:51.313Z,2.00
2022-11-12T12:03:39.534Z,2.20
2022-11-12T12:06:34.958Z,2.50
2022-11-12T12:09:07.969Z,2.83
2022-11-12T12:12:00.620Z,2.53
2022-11-12T12:15:18.368Z,3.43
2022-11-12T12:18:15.571Z,2.53
2022-11-12T12:20:50.955Z,2.57
2022-11-12T12:23:29.057Z,2.83
2022-11-12T12:26:00.455Z,3.43
2022-11-12T12:28:27.315Z,2.53
2022-11-12T12:30:59.955Z,2.60
2022-11-12T12:33:33.606Z,2.70
2022-11-12T12:36:05.491Z,2.50
2022-11-12T12:38:56.933Z,2.20
2022-11-12T12:41:32.892Z,2.90
2022-11-12T12:44:04.914Z,2.83
2022-11-12T12:46:37.457Z,3.30
2022-11-12T12:49:07.292Z,2.73
2022-11-12T12:51:35.214Z,2.73
2022-11-12T12:54:02.432Z,2.73
2022-11-12T12:56:28.981Z,3.00
2022-11-12T12:58:55.657Z,2.77
2022-11-12T13:01:22.633Z,2.57
2022-11-12T13:03:57.637Z,3.20
2022-11-12T13:06:24.119Z,2.97
2022-11-12T13:09:07.535Z,2.87
2022-11-12T13:12:01.984Z,3.13
2022-11-12T13:14:31.211Z,2.43
2022-11-12T13:17:00.094Z,3.33
2022-11-12T13:19:28.527Z,2.60
2022-11-12T13:22:32.703Z,2.83
2022-11-12T13:25:26.115Z,3.73
2022-11-12T13:27:52.638Z,2.70
2022-11-12T13:30:20.837Z,3.10
2022-11-12T13:32:47.399Z,2.73
2022-11-12T13:35:16.887Z,3.57
2022-11-12T13:37:55.776Z,3.77
2022-11-12T13:40:45.450Z,3.50
2022-11-12T13:43:15.035Z,3.30
2022-11-12T13:45:54.099Z,3.70
2022-11-12T13:48:28.952Z,3.43
2022-11-12T13:50:59.115Z,3.00
2022-11-12T13:53:28.553Z,2.60
2022-11-12T13:55:55.903Z,3.30
2022-11-12T13:58:28.903Z,3.00
2022-11-12T14:01:01.292Z,3.90
2022-11-12T14:03:46.067Z,2.97
2022-11-12T14:06:37.164Z,2.63
2022-11-12T14:09:28.226Z,2.93
2022-11-12T14:12:06.983Z,4.20
2022-11-12T14:14:52.185Z,3.17
2022-11-12T14:17:33.658Z,3.27
2022-11-12T14:20:15.384Z,3.60
2022-11-12T14:22:43.804Z,4.10
2022-11-12T14:25:23.225Z,3.40
2022-11-12T14:27:52.045Z,3.97
2022-11-12T14:30:26.052Z,3.70
2022-11-12T14:32:57.698Z,3.27
2022-11-12T14:35:31.736Z,2.63
2022-11-12T14:38:32.328Z,2.87
2022-11-12T14:41:03.811Z,3.37
2022-11-12T14:43:44.383Z,3.30
2022-11-12T14:46:35.493Z,3.73
2022-11-12T14:49:04.274Z,3.57
2022-11-12T14:51:36.846Z,3.63
2022-11-12T14:54:07.059Z,2.80
2022-11-12T14:56:40.010Z,3.47
2022-11-12T14:59:06.986Z,3.13
2022-11-12T15:04:26.256Z,3.67
2022-11-12T15:06:54.979Z,4.10
2022-11-12T15:09:36.974Z,3.83
2022-11-12T15:12:07.358Z,4.47
2022-11-12T15:14:34.799Z,3.77
2022-11-12T15:17:01.893Z,3.70
2022-11-12T15:19:29.768Z,3.50
2022-11-12T15:24:52.691Z,4.07
2022-11-12T15:30:34.411Z,3.20
2022-11-12T15:33:13.716Z,4.60
2022-11-12T15:35:44.061Z,2.70
2022-11-12T15:38:26.032Z,2.13
2022-11-12T15:40:57.666Z,2.27
2022-11-12T15:43:28.680Z,2.10
2022-11-12T15:45:56.488Z,2.03
2022-11-12T15:48:23.346Z,2.07
2022-11-12T15:50:50.215Z,2.17
2022-11-12T15:53:17.055Z,1.77
2022-11-12T15:55:45.309Z,1.73
2022-11-12T15:58:25.846Z,2.03
2022-11-12T16:00:52.488Z,2.00
2022-11-12T16:03:21.185Z,1.90
2022-11-12T16:05:48.458Z,2.93
2022-11-12T16:08:15.026Z,1.40
2022-11-12T16:10:44.152Z,1.27
2022-11-12T16:13:17.404Z,1.50
2022-11-12T16:15:44.103Z,1.17
2022-11-12T16:18:12.203Z,1.70
2022-11-12T16:20:39.156Z,1.77
2022-11-12T16:23:05.784Z,1.43
2022-11-12T16:25:35.707Z,2.10
2022-11-12T16:28:02.945Z,1.83
2022-11-12T16:30:32.591Z,1.70
2022-11-12T16:33:00.547Z,1.43
2022-11-12T16:35:29.928Z,1.17
2022-11-12T16:37:56.598Z,1.53
2022-11-12T16:40:28.641Z,1.80
2022-11-12T16:42:55.145Z,1.40
2022-11-12T16:45:32.156Z,1.90
2022-11-12T16:47:58.739Z,2.17
2022-11-12T16:50:27.761Z,2.17
2022-11-12T16:52:54.796Z,2.73
2022-11-12T16:55:21.506Z,2.63
2022-11-12T16:57:48.344Z,2.37
2022-11-12T17:00:18.042Z,2.37
2022-11-12T17:02:48.318Z,1.50
2022-11-12T17:05:21.627Z,2.20
2022-11-12T17:07:49.447Z,2.00
2022-11-12T17:10:17.003Z,2.53
2022-11-12T17:12:43.698Z,2.17
2022-11-12T17:15:10.471Z,2.20
2022-11-12T17:17:37.249Z,2.63
2022-11-12T17:20:04.185Z,2.17
2022-11-12T17:22:31.492Z,1.97
2022-11-12T17:24:58.110Z,2.17
2022-11-12T17:27:24.612Z,2.10
2022-11-12T17:29:51.357Z,1.77
2022-11-12T17:32:17.953Z,2.13
2022-11-12T17:34:44.741Z,2.23
2022-11-12T17:37:11.315Z,2.10
2022-11-12T17:39:37.848Z,1.77
2022-11-12T17:42:04.480Z,1.50
2022-11-12T17:44:31.037Z,1.47
2022-11-12T17:46:57.649Z,2.00
2022-11-12T17:49:24.300Z,1.60
2022-11-12T17:51:50.931Z,1.87
2022-11-12T17:54:17.453Z,1.93
2022-11-12T17:56:43.944Z,2.00
2022-11-12T17:59:10.386Z,1.50
2022-11-12T18:01:38.013Z,2.13
2022-11-12T18:04:04.860Z,1.77
2022-11-12T18:06:35.290Z,1.70
2022-11-12T18:09:08.197Z,2.07
2022-11-12T18:11:43.534Z,2.07
2022-11-12T18:14:11.020Z,1.77
2022-11-12T18:16:37.976Z,2.13
2022-11-12T18:19:04.713Z,1.87
2022-11-12T18:21:31.507Z,2.37
2022-11-12T18:23:58.081Z,1.33
2022-11-12T18:26:24.646Z,2.10
2022-11-12T18:28:52.925Z,1.50
2022-11-12T18:31:20.298Z,2.13
2022-11-12T18:33:47.175Z,2.00
2022-11-12T18:36:18.956Z,1.77
2022-11-12T18:38:48.502Z,3.03
2022-11-12T18:41:16.571Z,3.20
2022-11-12T18:43:43.520Z,2.90
2022-11-12T18:46:11.360Z,3.10
2022-11-12T18:48:39.189Z,2.80
2022-11-12T18:51:08.452Z,2.73
2022-11-12T18:53:37.455Z,2.83
2022-11-12T18:56:10.504Z,3.03
2022-11-12T18:58:37.198Z,2.73
2022-11-12T19:01:10.424Z,3.63
2022-11-12T19:03:37.318Z,2.23
2022-11-12T19:06:05.739Z,1.83
2022-11-12T19:08:32.952Z,2.27
2022-11-12T19:11:00.808Z,2.10
2022-11-12T19:13:28.054Z,1.97
2022-11-12T19:16:02.223Z,1.90
2022-11-12T19:18:28.919Z,1.93
2022-11-12T19:21:10.589Z,2.00
2022-11-12T19:23:38.558Z,2.10
2022-11-12T19:26:07.308Z,2.40
2022-11-12T19:28:36.827Z,2.50
2022-11-12T19:31:08.671Z,1.93
2022-11-12T19:33:35.257Z,1.43
2022-11-12T19:36:06.815Z,1.43
2022-11-12T19:38:33.731Z,1.40
2022-11-12T19:41:18.982Z,1.13
2022-11-12T19:43:46.371Z,1.83
2022-11-12T19:46:13.025Z,1.20
2022-11-12T19:48:39.636Z,1.17
2022-11-12T19:51:08.807Z,1.60
2022-11-12T19:53:46.130Z,1.50
2022-11-12T19:56:17.190Z,2.00
2022-11-12T19:58:48.254Z,1.50
2022-11-12T20:01:17.941Z,1.33
2022-11-12T20:03:45.077Z,1.37
2022-11-12T20:06:17.790Z,1.47
2022-11-12T20:08:44.916Z,2.30
2022-11-12T20:11:11.704Z,1.50
2022-11-12T20:13:39.409Z,1.30
2022-11-12T20:16:10.253Z,1.43
2022-11-12T20:18:36.957Z,1.30
2022-11-12T20:21:05.063Z,1.27
2022-11-12T20:23:33.887Z,1.07
2022-11-12T20:26:09.746Z,1.40
2022-11-12T20:28:38.194Z,1.13
2022-11-12T20:31:08.072Z,1.20
2022-11-12T20:33:39.256Z,1.30
2022-11-12T20:36:12.775Z,1.13
2022-11-12T20:38:41.606Z,1.90
2022-11-12T20:41:13.487Z,1.30
2022-11-12T20:43:40.193Z,1.33
2022-11-12T20:46:06.768Z,1.00
2022-11-12T20:48:33.543Z,0.87
2022-11-12T20:51:27.376Z,0.97
2022-11-12T20:53:59.260Z,1.63
2022-11-12T20:56:28.417Z,1.03
2022-11-12T20:58:55.154Z,1.20
2022-11-12T21:01:23.611Z,1.37
2022-11-12T21:03:50.811Z,1.57
2022-11-12T21:06:20.497Z,1.77
2022-11-12T21:08:47.570Z,1.83
2022-11-12T21:11:16.745Z,1.77
2022-11-12T21:13:43.785Z,1.50
2022-11-12T21:16:12.248Z,1.73
2022-11-12T21:18:39.946Z,1.60
2022-11-12T21:21:07.859Z,1.47
2022-11-12T21:23:36.771Z,1.97
2022-11-12T21:26:04.476Z,1.57
2022-11-12T21:28:32.903Z,1.40
2022-11-12T21:31:07.392Z,1.20
2022-11-12T21:33:34.791Z,2.20
2022-11-12T21:36:01.844Z,1.67
2022-11-12T21:38:29.478Z,2.03
2022-11-12T21:41:06.416Z,3.10
2022-11-12T21:43:40.553Z,1.70
2022-11-12T21:46:09.205Z,1.67
2022-11-12T21:48:36.893Z,2.10
2022-11-12T21:51:06.351Z,1.67
2022-11-12T21:53:33.899Z,1.83
2022-11-12T21:56:11.037Z,1.83
2022-11-12T21:58:38.446Z,1.10
2022-11-12T22:01:22.310Z,1.80
2022-11-12T22:03:50.654Z,1.23
2022-11-12T22:06:18.042Z,1.40
2022-11-12T22:08:44.784Z,1.47
2022-11-12T22:11:14.761Z,1.50
2022-11-12T22:13:42.541Z,1.77
2022-11-12T22:16:20.216Z,1.90
2022-11-12T22:18:49.291Z,1.63
2022-11-12T22:21:19.006Z,2.00
2022-11-12T22:23:46.227Z,1.73
2022-11-12T22:26:15.584Z,1.57
2022-11-12T22:28:42.699Z,1.73
2022-11-12T22:31:17.587Z,1.83
2022-11-12T22:33:44.270Z,1.53
2022-11-12T22:36:13.248Z,2.13
2022-11-12T22:38:51.061Z,1.60
2022-11-12T22:41:28.606Z,1.57
2022-11-12T22:43:58.023Z,1.47
2022-11-12T22:46:33.498Z,1.60
2022-11-12T22:49:00.619Z,2.30
2022-11-12T22:51:29.746Z,1.83
2022-11-12T22:53:58.627Z,1.90
2022-11-12T22:56:26.898Z,1.30
2022-11-12T22:58:54.030Z,1.80
2022-11-12T23:01:28.153Z,1.80
2022-11-12T23:03:57.725Z,1.43
2022-11-12T23:06:25.233Z,1.57
2022-11-12T23:08:53.846Z,1.40
2022-11-12T23:11:21.052Z,1.90
2022-11-12T23:13:48.591Z,1.57
2022-11-12T23:16:18.244Z,1.60
2022-11-12T23:18:45.103Z,1.60
2022-11-12T23:21:18.706Z,1.97
2022-11-12T23:23:45.560Z,1.00
2022-11-12T23:26:19.049Z,0.97
2022-11-12T23:28:45.742Z,1.10
2022-11-12T23:31:21.255Z,1.37
2022-11-12T23:33:52.600Z,1.33
2022-11-12T23:36:20.612Z,0.97
2022-11-12T23:38:47.721Z,0.90
2022-11-12T23:41:17.198Z,2.00
2022-11-12T23:43:44.367Z,1.03
2022-11-12T23:46:11.851Z,1.10
2022-11-12T23:48:38.533Z,1.20
2022-11-12T23:51:17.786Z,1.20
2022-11-12T23:53:44.439Z,0.80
2022-11-12T23:56:13.495Z,1.60
2022-11-12T23:58:41.347Z,1.10
